Time;durP1;ratioP1;P1;durP2;ratioP2;P2;SDS_P1;SDS_P2;PMS_P1;PMS_P2;Temp;Humidity;BMP_temperature;BMP_pressure;BME280_temperature;BME280_humidity;BME280_pressure;Samples;Min_cycle;Max_cycle;Signal;HPM_P1;HPM_P2
2021/10/11 00:02:09;;;;;;;7.00;5.00;;;8.10;99.90;;;;;;5068625;28;20192;-71
2021/10/11 00:04:35;;;;;;;6.40;4.00;;;8.10;99.90;;;;;;5068770;28;20708;-73
2021/10/11 00:07:01;;;;;;;7.47;4.68;;;8.20;99.90;;;;;;5067215;28;20208;-72
2021/10/11 00:09:27;;;;;;;5.03;4.15;;;8.20;99.90;;;;;;5068506;28;20221;-73
2021/10/11 00:11:52;;;;;;;8.15;4.18;;;8.30;99.90;;;;;;5067098;28;20165;-72
2021/10/11 00:14:18;;;;;;;9.43;4.03;;;8.20;99.90;;;;;;5068362;28;20205;-74
2021/10/11 00:16:44;;;;;;;7.25;4.10;;;8.30;99.90;;;;;;5068272;28;20184;-71
2021/10/11 00:19:10;;;;;;;4.85;3.47;;;8.20;99.90;;;;;;5068259;28;20157;-72
2021/10/11 00:21:36;;;;;;;8.00;3.75;;;8.40;99.90;;;;;;5068350;28;20145;-73
2021/10/11 00:24:02;;;;;;;9.05;3.83;;;8.30;99.90;;;;;;5066928;28;20186;-73
2021/10/11 00:26:28;;;;;;;7.55;3.95;;;8.30;99.90;;;;;;5066650;28;20252;-73
2021/10/11 00:28:54;;;;;;;6.40;3.60;;;8.30;99.90;;;;;;5066757;28;20172;-72
2021/10/11 00:31:20;;;;;;;4.40;3.10;;;8.30;99.90;;;;;;5066753;28;20180;-74
2021/10/11 00:33:45;;;;;;;7.28;4.03;;;8.20;99.90;;;;;;5071140;28;20192;-72
2021/10/11 00:36:11;;;;;;;9.20;3.60;;;8.10;99.90;;;;;;5088116;28;20198;-72
2021/10/11 00:38:39;;;;;;;6.03;4.15;;;8.10;99.90;;;;;;5088220;28;20156;-71
2021/10/11 00:41:05;;;;;;;5.43;3.72;;;8.10;99.90;;;;;;5083244;28;20232;-72
2021/10/11 00:43:31;;;;;;;6.50;3.88;;;8.00;99.90;;;;;;5051864;28;20270;-71
2021/10/11 00:45:57;;;;;;;4.63;3.38;;;8.10;99.90;;;;;;5066214;28;20197;-71
2021/10/11 00:48:23;;;;;;;5.68;3.17;;;8.10;99.90;;;;;;5067707;28;20157;-71
2021/10/11 00:50:49;;;;;;;4.68;3.20;;;8.00;99.90;;;;;;5066227;28;20240;-71
2021/10/11 00:53:16;;;;;;;6.10;3.60;;;8.00;99.90;;;;;;5049797;28;20315;-71
2021/10/11 00:55:42;;;;;;;6.07;3.67;;;8.00;99.90;;;;;;5029613;28;20178;-71
2021/10/11 00:58:09;;;;;;;5.20;3.60;;;8.00;99.90;;;;;;5047499;28;20201;-71
2021/10/11 01:00:35;;;;;;;7.53;3.53;;;8.00;99.90;;;;;;5029695;28;20162;-71
2021/10/11 01:03:01;;;;;;;5.00;3.58;;;8.00;99.90;;;;;;5047789;28;20160;-71
2021/10/11 01:05:27;;;;;;;5.00;3.13;;;8.10;99.90;;;;;;5029726;28;20654;-71
2021/10/11 01:07:53;;;;;;;9.52;3.30;;;8.20;99.90;;;;;;5047435;28;20189;-72
2021/10/11 01:10:19;;;;;;;6.20;3.60;;;8.50;99.90;;;;;;5029703;28;20170;-71
2021/10/11 01:12:44;;;;;;;5.57;3.35;;;8.40;99.90;;;;;;5047466;28;20165;-73
2021/10/11 01:15:10;;;;;;;4.97;3.47;;;8.40;99.90;;;;;;5047472;28;20197;-73
2021/10/11 01:17:36;;;;;;;4.63;3.22;;;8.50;99.90;;;;;;5047415;28;20275;-72
2021/10/11 01:20:03;;;;;;;5.22;3.33;;;8.60;99.90;;;;;;5047695;28;20165;-73
2021/10/11 01:22:43;;;;;;;9.30;3.60;;;8.70;99.90;;;;;;5047561;28;20157;-72
2021/10/11 01:25:13;;;;;;;4.78;2.65;;;8.70;99.90;;;;;;5029513;28;20622;-73
2021/10/11 01:27:39;;;;;;;5.45;3.00;;;8.70;99.90;;;;;;5047556;28;20185;-73
2021/10/11 01:30:06;;;;;;;3.90;2.85;;;8.80;99.90;;;;;;5047164;28;20292;-73
2021/10/11 01:32:33;;;;;;;9.00;3.20;;;8.80;99.90;;;;;;5047239;28;20154;-72
2021/10/11 01:34:59;;;;;;;4.07;3.28;;;8.80;99.90;;;;;;5042231;28;20188;-73
2021/10/11 01:37:24;;;;;;;5.32;2.80;;;8.70;99.90;;;;;;5066949;28;20196;-73
2021/10/11 01:39:50;;;;;;;3.17;2.63;;;8.70;99.90;;;;;;5052366;28;20215;-73
2021/10/11 01:42:16;;;;;;;7.05;2.53;;;8.80;99.90;;;;;;5058462;28;20181;-72
2021/10/11 01:44:42;;;;;;;8.13;3.40;;;8.60;99.90;;;;;;5051087;28;20158;-73
2021/10/11 01:47:08;;;;;;;5.68;3.28;;;8.60;99.90;;;;;;5033110;28;20723;-73
2021/10/11 01:49:34;;;;;;;6.47;3.42;;;8.70;99.90;;;;;;5050933;28;20166;-72
2021/10/11 01:52:00;;;;;;;7.00;2.88;;;8.70;99.90;;;;;;5050731;28;20228;-72
2021/10/11 01:54:26;;;;;;;5.68;3.10;;;8.70;99.90;;;;;;5032798;28;20232;-72
2021/10/11 01:56:53;;;;;;;4.55;3.03;;;8.70;99.90;;;;;;5032710;28;20585;-72
2021/10/11 01:59:19;;;;;;;4.18;2.35;;;8.70;99.90;;;;;;5032695;28;20264;-73
2021/10/11 02:01:45;;;;;;;6.13;2.80;;;8.60;99.90;;;;;;5050797;28;20173;-72
2021/10/11 02:04:10;;;;;;;4.43;2.70;;;8.70;99.90;;;;;;5032695;28;20173;-73
2021/10/11 02:06:36;;;;;;;3.70;3.10;;;8.60;99.90;;;;;;5047523;28;20240;-73
2021/10/11 02:09:02;;;;;;;4.75;3.17;;;8.50;99.90;;;;;;5027374;28;20204;-73
2021/10/11 02:11:29;;;;;;;4.15;3.00;;;8.40;99.90;;;;;;5034532;28;20188;-71
2021/10/11 02:13:56;;;;;;;3.33;2.28;;;8.60;99.90;;;;;;5048845;28;20193;-70
2021/10/11 02:16:22;;;;;;;5.28;2.67;;;8.70;99.90;;;;;;5046465;28;20166;-71
2021/10/11 02:18:48;;;;;;;7.13;3.22;;;8.70;99.90;;;;;;5030600;28;20204;-71
2021/10/11 02:21:14;;;;;;;3.35;2.47;;;8.90;99.90;;;;;;5030606;28;20184;-72
2021/10/11 02:23:40;;;;;;;8.10;2.85;;;9.00;99.90;;;;;;5030399;28;20238;-71
2021/10/11 02:26:06;;;;;;;3.47;2.80;;;9.10;99.90;;;;;;5043753;28;20169;-71
2021/10/11 02:28:32;;;;;;;5.30;3.33;;;9.20;99.90;;;;;;5050038;28;20272;-71
2021/10/11 02:30:58;;;;;;;5.32;2.75;;;9.00;99.90;;;;;;5050133;28;20165;-72
2021/10/11 02:33:24;;;;;;;3.65;2.47;;;9.20;99.90;;;;;;5050155;28;20181;-72
2021/10/11 02:35:50;;;;;;;5.97;3.05;;;9.20;99.90;;;;;;5049960;28;20223;-73
2021/10/11 02:38:16;;;;;;;4.65;2.70;;;9.20;99.90;;;;;;5050015;28;20185;-73
2021/10/11 02:40:42;;;;;;;4.32;2.85;;;9.10;99.90;;;;;;5050359;28;20166;-72
2021/10/11 02:43:07;;;;;;;5.60;3.42;;;9.10;99.90;;;;;;5036893;28;20174;-73
2021/10/11 02:45:33;;;;;;;4.72;2.72;;;9.20;99.90;;;;;;5029994;28;20166;-72
2021/10/11 02:48:04;;;;;;;6.93;2.90;;;9.30;99.90;;;;;;5012378;28;20202;-72
2021/10/11 02:50:29;;;;;;;5.20;2.85;;;9.30;99.90;;;;;;5028830;28;20162;-73
2021/10/11 02:52:55;;;;;;;6.00;2.95;;;9.40;99.90;;;;;;5030184;28;20638;-72
2021/10/11 02:55:21;;;;;;;4.53;2.92;;;9.30;99.90;;;;;;5029887;28;20622;-72
2021/10/11 02:57:47;;;;;;;5.50;3.25;;;9.40;99.90;;;;;;5029999;28;20201;-71
2021/10/11 03:00:14;;;;;;;4.45;2.78;;;9.30;99.90;;;;;;5029904;28;20219;-72
2021/10/11 03:02:39;;;;;;;5.15;3.00;;;9.30;99.90;;;;;;5029892;28;20186;-72
2021/10/11 03:05:06;;;;;;;4.43;2.88;;;9.40;99.90;;;;;;5029669;28;20630;-72
2021/10/11 03:07:32;;;;;;;4.80;2.92;;;9.50;99.90;;;;;;5011738;28;20174;-71
2021/10/11 03:09:57;;;;;;;4.35;3.28;;;9.50;99.90;;;;;;5046959;28;20192;-73
2021/10/11 03:12:23;;;;;;;8.88;3.42;;;9.40;99.90;;;;;;5049494;28;20185;-72
2021/10/11 03:14:51;;;;;;;5.90;3.33;;;9.30;99.90;;;;;;5049186;28;20181;-72
2021/10/11 03:17:17;;;;;;;4.28;3.22;;;9.40;99.90;;;;;;5062835;28;20182;-72
2021/10/11 03:19:43;;;;;;;7.00;2.97;;;9.40;99.90;;;;;;5069182;28;20197;-71
2021/10/11 03:22:09;;;;;;;5.63;3.10;;;9.50;99.90;;;;;;5069144;28;20163;-71
2021/10/11 03:24:35;;;;;;;4.50;2.97;;;9.50;99.90;;;;;;5069076;28;20225;-70
2021/10/11 03:27:01;;;;;;;7.50;3.10;;;9.50;99.90;;;;;;5069217;28;20165;-71
2021/10/11 03:29:27;;;;;;;4.28;2.88;;;9.40;99.90;;;;;;5069548;28;20196;-71
2021/10/11 03:31:53;;;;;;;5.93;3.50;;;9.40;99.90;;;;;;5051502;28;20245;-72
2021/10/11 03:34:20;;;;;;;6.15;3.22;;;9.40;99.90;;;;;;5069458;28;20185;-71
2021/10/11 03:36:47;;;;;;;5.57;2.53;;;9.50;99.90;;;;;;5069471;28;20568;-72
2021/10/11 03:39:12;;;;;;;7.78;2.72;;;9.70;99.90;;;;;;5069257;28;20199;-71
2021/10/11 03:41:38;;;;;;;4.30;2.78;;;9.70;99.90;;;;;;5069160;28;20158;-73
2021/10/11 03:44:05;;;;;;;4.95;2.83;;;9.80;99.90;;;;;;5051591;28;20173;-71
2021/10/11 03:46:33;;;;;;;6.65;3.88;;;9.70;99.90;;;;;;5049158;28;20181;-71
2021/10/11 03:49:01;;;;;;;6.43;2.78;;;9.60;99.90;;;;;;5049068;28;20208;-71
2021/10/11 03:51:27;;;;;;;6.70;3.25;;;9.70;99.90;;;;;;5048860;28;20162;-72
2021/10/11 03:53:53;;;;;;;4.72;2.85;;;9.80;99.90;;;;;;5049153;28;20646;-72
2021/10/11 03:56:18;;;;;;;10.32;3.15;;;9.80;99.90;;;;;;5049370;28;20188;-72
2021/10/11 03:58:44;;;;;;;6.15;3.60;;;9.70;99.90;;;;;;5031076;28;20173;-73
2021/10/11 04:01:11;;;;;;;6.40;3.05;;;9.70;99.90;;;;;;5048755;28;20157;-72
2021/10/11 04:03:36;;;;;;;3.35;2.80;;;9.80;99.90;;;;;;5048758;28;20264;-71
2021/10/11 04:06:02;;;;;;;5.45;3.08;;;9.80;99.90;;;;;;5048877;28;20166;-71
2021/10/11 04:08:38;;;;;;;4.93;2.97;;;9.70;99.90;;;;;;5049093;28;20161;-73
2021/10/11 04:13:31;;;;;;;4.80;3.20;;;9.70;99.90;;;;;;5048830;28;20193;-72
2021/10/11 04:15:57;;;;;;;6.05;2.80;;;9.90;99.90;;;;;;5048776;28;20168;-72
2021/10/11 04:18:23;;;;;;;6.07;2.28;;;9.90;99.90;;;;;;5030677;28;20181;-71
2021/10/11 04:20:49;;;;;;;8.70;3.65;;;9.90;99.90;;;;;;5048440;28;20158;-72
2021/10/11 04:23:15;;;;;;;4.45;2.13;;;10.00;99.90;;;;;;5048405;28;20189;-72
2021/10/11 04:25:40;;;;;;;3.42;2.65;;;10.00;99.90;;;;;;5030619;28;20648;-71
2021/10/11 04:28:08;;;;;;;6.72;3.80;;;10.00;99.90;;;;;;5048206;28;20180;-70
2021/10/11 04:30:35;;;;;;;4.82;3.13;;;9.90;99.90;;;;;;5048370;28;20149;-71
2021/10/11 04:33:01;;;;;;;4.63;3.13;;;9.90;99.90;;;;;;5048403;28;20227;-72
2021/10/11 04:35:27;;;;;;;5.43;3.10;;;9.90;99.90;;;;;;5030384;28;20197;-72
2021/10/11 04:37:53;;;;;;;7.43;3.25;;;9.80;99.90;;;;;;5048441;28;20235;-71
2021/10/11 04:40:21;;;;;;;6.55;3.72;;;9.90;99.90;;;;;;5030350;28;20170;-71
2021/10/11 04:42:47;;;;;;;4.68;3.22;;;10.00;99.90;;;;;;5048075;28;20189;-72
2021/10/11 04:45:14;;;;;;;6.45;3.05;;;10.00;99.90;;;;;;5048285;28;20173;-71
2021/10/11 04:47:40;;;;;;;3.42;2.50;;;10.10;99.90;;;;;;5047959;28;20181;-71
2021/10/11 04:50:07;;;;;;;4.55;2.78;;;10.00;99.90;;;;;;5048127;28;20165;-71
2021/10/11 04:52:33;;;;;;;6.32;3.13;;;9.90;99.90;;;;;;5049747;28;20236;-73
2021/10/11 04:54:59;;;;;;;7.60;2.65;;;10.00;99.90;;;;;;5067637;28;20192;-72
2021/10/11 04:57:25;;;;;;;4.43;3.22;;;10.00;99.90;;;;;;5066580;28;20293;-70
2021/10/11 04:59:51;;;;;;;5.43;3.08;;;10.00;99.90;;;;;;5068011;28;20157;-71
2021/10/11 05:02:16;;;;;;;5.68;2.95;;;10.00;99.90;;;;;;5067687;28;20189;-72
2021/10/11 05:04:43;;;;;;;4.85;3.13;;;10.20;99.90;;;;;;5066474;28;20203;-72
2021/10/11 05:07:09;;;;;;;6.03;3.30;;;10.20;99.90;;;;;;5067940;28;20244;-72
2021/10/11 05:09:35;;;;;;;3.42;2.45;;;10.20;99.90;;;;;;5067787;28;20175;-71
2021/10/11 05:12:01;;;;;;;4.28;2.85;;;10.10;99.90;;;;;;5067578;28;20192;-71
2021/10/11 05:14:27;;;;;;;10.30;2.60;;;10.10;99.90;;;;;;5066962;28;20199;-71
2021/10/11 05:16:54;;;;;;;6.10;3.40;;;10.20;99.90;;;;;;5067669;28;20177;-72
2021/10/11 05:19:27;;;;;;;10.50;3.35;;;10.10;99.90;;;;;;5067530;28;20160;-71
2021/10/11 05:21:54;;;;;;;8.15;3.85;;;10.10;99.90;;;;;;5067258;28;20193;-71
2021/10/11 05:24:23;;;;;;;4.65;2.88;;;10.20;99.90;;;;;;5066183;28;20210;-72
2021/10/11 05:26:51;;;;;;;4.75;3.17;;;10.20;99.90;;;;;;5067717;28;20153;-71
2021/10/11 05:29:18;;;;;;;9.95;3.08;;;10.30;99.90;;;;;;5067731;28;20193;-72
2021/10/11 05:31:44;;;;;;;6.50;2.83;;;10.30;99.90;;;;;;5067792;28;20193;-71
2021/10/11 05:34:10;;;;;;;4.70;3.15;;;10.40;99.90;;;;;;5067606;28;20203;-71
2021/10/11 05:36:36;;;;;;;4.32;2.63;;;10.40;99.90;;;;;;5067828;28;20164;-72
2021/10/11 05:39:03;;;;;;;3.17;2.40;;;10.40;99.90;;;;;;5067656;28;20156;-72
2021/10/11 05:41:29;;;;;;;4.68;2.25;;;10.40;99.90;;;;;;5067387;28;20237;-70
2021/10/11 05:43:55;;;;;;;5.47;2.70;;;10.50;99.90;;;;;;5067886;28;20172;-71
2021/10/11 05:46:21;;;;;;;7.63;2.90;;;10.50;99.90;;;;;;5066271;28;20675;-71
2021/10/11 05:48:46;;;;;;;5.90;3.03;;;10.40;99.90;;;;;;5067692;28;20161;-71
2021/10/11 05:51:12;;;;;;;5.03;2.80;;;10.50;99.90;;;;;;5063347;28;20181;-71
2021/10/11 05:53:38;;;;;;;4.25;3.08;;;10.60;99.90;;;;;;5047313;28;20201;-72
2021/10/11 05:56:04;;;;;;;5.00;2.13;;;10.50;99.90;;;;;;5047515;28;20157;-72
2021/10/11 05:58:31;;;;;;;4.40;2.90;;;10.50;99.90;;;;;;5047357;28;20166;-71
2021/10/11 06:00:57;;;;;;;5.55;2.65;;;10.40;99.90;;;;;;5047254;28;20162;-72
2021/10/11 06:03:23;;;;;;;6.13;2.47;;;10.40;99.90;;;;;;5047532;28;20627;-71
2021/10/11 06:05:49;;;;;;;8.18;3.13;;;10.50;99.90;;;;;;5029626;28;20173;-71
2021/10/11 06:08:15;;;;;;;4.90;2.22;;;10.50;99.90;;;;;;5029585;28;20653;-71
2021/10/11 06:10:41;;;;;;;4.50;2.67;;;10.50;99.90;;;;;;5047284;28;20162;-72
2021/10/11 06:13:07;;;;;;;6.32;3.22;;;10.60;99.90;;;;;;5047140;28;20209;-72
2021/10/11 06:15:32;;;;;;;4.63;2.70;;;10.70;99.90;;;;;;5029400;28;20212;-72
2021/10/11 06:17:58;;;;;;;6.70;2.85;;;10.70;99.90;;;;;;5047432;28;20219;-71
2021/10/11 06:20:25;;;;;;;5.22;2.72;;;10.70;99.90;;;;;;5029565;28;20245;-70
2021/10/11 06:22:51;;;;;;;3.80;2.15;;;10.60;99.90;;;;;;5046958;28;20268;-70
2021/10/11 06:25:16;;;;;;;4.43;2.92;;;10.70;99.90;;;;;;5030892;28;20192;-70
2021/10/11 06:27:42;;;;;;;6.15;3.20;;;10.70;99.90;;;;;;5050475;28;20161;-72
2021/10/11 06:30:08;;;;;;;3.20;2.55;;;10.80;99.90;;;;;;5033170;28;20174;-71
2021/10/11 06:32:34;;;;;;;5.43;2.40;;;10.70;99.90;;;;;;5050481;28;20195;-71
2021/10/11 06:35:01;;;;;;;3.00;2.45;;;10.70;99.90;;;;;;5050781;28;20181;-71
2021/10/11 06:37:27;;;;;;;3.25;2.50;;;10.70;99.90;;;;;;5032749;28;20165;-72
2021/10/11 06:39:53;;;;;;;9.38;3.80;;;10.80;99.90;;;;;;5032716;28;20200;-72
2021/10/11 06:42:19;;;;;;;9.98;2.33;;;10.70;99.90;;;;;;5032342;28;20224;-73
2021/10/11 06:44:46;;;;;;;3.85;2.35;;;10.80;99.90;;;;;;5050551;28;20165;-74
2021/10/11 06:47:12;;;;;;;4.68;2.65;;;10.80;99.90;;;;;;5050334;28;20164;-73
2021/10/11 06:49:42;;;;;;;5.78;2.67;;;10.90;99.90;;;;;;5050514;28;20161;-71
2021/10/11 06:52:08;;;;;;;4.57;2.95;;;10.80;99.90;;;;;;5045282;28;20289;-71
2021/10/11 06:54:34;;;;;;;5.88;2.67;;;10.90;99.90;;;;;;5070606;28;20200;-71
2021/10/11 06:57:00;;;;;;;4.65;2.47;;;10.90;99.90;;;;;;5069303;28;20219;-71
2021/10/11 06:59:26;;;;;;;9.13;2.53;;;10.90;99.90;;;;;;5069279;28;20239;-71
2021/10/11 07:01:52;;;;;;;7.47;2.60;;;10.90;99.90;;;;;;5070275;28;20200;-71
2021/10/11 07:04:18;;;;;;;6.93;2.25;;;11.00;99.90;;;;;;5069184;28;20183;-70
2021/10/11 07:06:44;;;;;;;4.72;2.20;;;11.00;99.90;;;;;;5070255;28;20169;-71
2021/10/11 07:09:09;;;;;;;3.92;2.15;;;11.00;99.90;;;;;;5069034;28;20172;-71
2021/10/11 07:11:35;;;;;;;5.18;2.30;;;11.00;99.90;;;;;;5070175;28;20165;-71
2021/10/11 07:14:01;;;;;;;3.72;2.30;;;11.10;99.90;;;;;;5070322;28;20185;-71
2021/10/11 07:16:27;;;;;;;5.88;2.17;;;11.00;99.90;;;;;;5070188;28;20173;-71
2021/10/11 07:18:53;;;;;;;5.78;2.30;;;10.90;99.90;;;;;;5068684;28;20168;-72
2021/10/11 07:21:19;;;;;;;2.70;2.33;;;11.00;99.90;;;;;;5068870;28;20180;-72
2021/10/11 07:23:45;;;;;;;3.80;2.38;;;10.90;99.90;;;;;;5069797;28;20196;-72
2021/10/11 07:26:11;;;;;;;5.25;2.10;;;11.00;99.90;;;;;;5069905;28;20153;-72
2021/10/11 07:28:36;;;;;;;5.20;2.58;;;11.10;99.90;;;;;;5069360;28;20191;-72
2021/10/11 07:31:03;;;;;;;6.13;2.10;;;11.10;99.90;;;;;;5069629;28;20160;-72
2021/10/11 07:33:29;;;;;;;6.18;2.25;;;11.00;99.90;;;;;;5069505;28;20192;-72
2021/10/11 07:35:55;;;;;;;3.65;2.50;;;11.10;99.90;;;;;;5068947;28;20160;-70
2021/10/11 07:38:21;;;;;;;2.90;2.10;;;11.10;99.90;;;;;;5068302;28;20602;-71
2021/10/11 07:40:49;;;;;;;5.68;2.08;;;11.10;99.90;;;;;;5069753;28;20171;-71
2021/10/11 07:43:15;;;;;;;4.72;2.20;;;11.20;99.90;;;;;;5069451;28;20223;-71
2021/10/11 07:45:40;;;;;;;2.72;2.05;;;11.10;99.90;;;;;;5069371;28;20181;-71
2021/10/11 07:48:07;;;;;;;5.30;2.30;;;11.20;99.90;;;;;;5069355;28;20580;-72
2021/10/11 07:50:33;;;;;;;4.15;2.25;;;11.10;99.90;;;;;;5069436;28;20168;-72
2021/10/11 07:52:59;;;;;;;4.70;2.42;;;11.10;99.90;;;;;;5053809;28;20240;-71
2021/10/11 07:55:25;;;;;;;4.03;2.70;;;11.20;99.90;;;;;;5048247;28;20429;-72
2021/10/11 07:57:51;;;;;;;3.03;2.10;;;11.20;99.90;;;;;;5049029;28;20538;-71
2021/10/11 08:00:19;;;;;;;5.22;2.60;;;11.20;99.90;;;;;;5049114;28;20172;-71
2021/10/11 08:02:46;;;;;;;2.75;1.98;;;11.20;99.90;;;;;;5048802;28;20215;-71
2021/10/11 08:05:15;;;;;;;6.05;2.97;;;11.20;99.90;;;;;;5049117;28;20168;-71
2021/10/11 08:07:44;;;;;;;6.00;2.42;;;11.20;99.90;;;;;;5049012;28;20189;-71
2021/10/11 08:10:12;;;;;;;4.80;2.60;;;11.30;99.90;;;;;;5049085;28;20225;-71
2021/10/11 08:12:38;;;;;;;3.30;2.30;;;11.20;99.90;;;;;;5048964;28;20198;-72
2021/10/11 08:15:06;;;;;;;3.88;2.28;;;11.30;99.90;;;;;;5048773;28;20190;-72
2021/10/11 08:17:32;;;;;;;4.07;2.40;;;11.20;99.90;;;;;;5048917;28;20150;-72
2021/10/11 08:19:58;;;;;;;3.58;2.85;;;11.30;99.90;;;;;;5048727;28;20609;-72
2021/10/11 08:22:24;;;;;;;3.92;2.53;;;11.30;99.90;;;;;;5030724;28;20261;-72
2021/10/11 08:24:51;;;;;;;4.07;2.70;;;11.40;99.90;;;;;;5048667;28;20204;-72
2021/10/11 08:27:19;;;;;;;5.20;2.38;;;11.50;99.90;;;;;;5048769;28;20304;-73
2021/10/11 08:29:52;;;;;;;4.30;2.70;;;11.60;99.90;;;;;;5048570;28;20183;-71
2021/10/11 08:32:26;;;;;;;2.92;2.47;;;11.60;99.90;;;;;;5030703;28;20232;-71
2021/10/11 08:34:53;;;;;;;8.35;2.92;;;11.60;99.90;;;;;;5048417;28;20184;-71
2021/10/11 08:37:21;;;;;;;3.05;1.63;;;11.70;99.90;;;;;;5048537;28;20180;-72
2021/10/11 08:39:48;;;;;;;3.92;2.70;;;11.70;99.90;;;;;;5047655;28;20239;-72
2021/10/11 08:42:15;;;;;;;3.65;2.25;;;11.80;99.90;;;;;;5048055;28;20218;-72
2021/10/11 08:44:42;;;;;;;3.92;2.47;;;11.70;99.90;;;;;;5048406;28;20149;-72
2021/10/11 08:47:12;;;;;;;5.05;2.65;;;11.80;99.90;;;;;;5046517;28;20204;-71
2021/10/11 08:49:45;;;;;;;5.28;2.63;;;11.90;99.90;;;;;;5028714;28;20196;-72
2021/10/11 08:52:12;;;;;;;3.33;2.45;;;11.90;99.90;;;;;;5042616;28;20261;-72
2021/10/11 08:54:41;;;;;;;3.30;2.03;;;11.90;99.90;;;;;;5057428;28;20211;-71
2021/10/11 08:57:18;;;;;;;9.85;3.20;;;11.90;99.90;;;;;;5066140;28;20215;-72
2021/10/11 08:59:43;;;;;;;6.00;2.95;;;11.90;99.90;;;;;;5081358;28;20175;-70
2021/10/11 09:02:10;;;;;;;6.70;3.60;;;12.00;99.90;;;;;;5082549;28;20195;-71
2021/10/11 09:04:53;;;;;;;5.22;2.65;;;12.10;99.90;;;;;;5082240;28;20236;-72
2021/10/11 09:07:27;;;;;;;3.80;2.55;;;12.20;99.90;;;;;;5082514;28;20213;-72
2021/10/11 09:09:55;;;;;;;2.55;2.17;;;12.30;99.90;;;;;;5081057;28;20214;-72
2021/10/11 09:12:27;;;;;;;12.13;3.05;;;12.40;99.90;;;;;;5082794;28;20196;-72
2021/10/11 09:15:04;;;;;;;18.10;4.80;;;12.50;99.90;;;;;;5081986;28;20179;-72
2021/10/11 09:17:33;;;;;;;11.05;3.88;;;12.50;99.90;;;;;;5080882;28;20638;-69
2021/10/11 09:20:13;;;;;;;10.93;4.28;;;12.40;99.90;;;;;;5082130;28;20168;-71
2021/10/11 09:22:41;;;;;;;7.47;4.47;;;12.10;99.90;;;;;;5080558;28;20272;-72
2021/10/11 09:25:08;;;;;;;8.15;4.32;;;11.90;99.90;;;;;;5075634;28;20216;-72
2021/10/11 09:27:49;;;;;;;11.40;4.57;;;11.90;99.90;;;;;;5081932;28;20176;-71
2021/10/11 09:30:19;;;;;;;6.15;3.60;;;12.10;99.90;;;;;;5062243;28;20199;-72
2021/10/11 09:32:46;;;;;;;5.05;3.63;;;12.10;99.90;;;;;;5061489;28;20188;-72
2021/10/11 09:35:17;;;;;;;3.92;2.95;;;12.40;99.90;;;;;;5061503;28;20645;-72
2021/10/11 09:37:52;;;;;;;5.50;2.85;;;12.80;99.90;;;;;;5061665;28;20153;-72
2021/10/11 09:40:20;;;;;;;5.50;2.30;;;13.10;99.90;;;;;;5061954;28;20196;-72
2021/10/11 09:42:47;;;;;;;4.95;2.53;;;13.30;99.90;;;;;;5061940;28;20152;-72
2021/10/11 09:45:14;;;;;;;4.10;2.67;;;13.50;99.90;;;;;;5060182;28;20424;-72
2021/10/11 09:47:45;;;;;;;4.78;2.85;;;13.70;99.90;;;;;;5061956;28;20192;-71
2021/10/11 09:50:13;;;;;;;4.25;3.10;;;13.80;99.90;;;;;;5061731;28;20199;-71
2021/10/11 09:52:41;;;;;;;5.63;3.00;;;13.70;99.90;;;;;;5049390;28;20296;-71
2021/10/11 09:55:09;;;;;;;7.38;3.60;;;13.80;99.90;;;;;;5041433;28;20192;-71
2021/10/11 09:57:35;;;;;;;4.15;2.97;;;13.80;99.90;;;;;;5041905;28;20215;-71
2021/10/11 10:00:07;;;;;;;3.97;2.72;;;13.90;99.90;;;;;;5043729;28;20208;-70
2021/10/11 10:02:45;;;;;;;11.45;3.80;;;13.90;99.90;;;;;;5045710;28;20161;-71
2021/10/11 10:05:21;;;;;;;6.70;3.55;;;14.00;99.90;;;;;;5050990;28;20161;-71
2021/10/11 10:07:50;;;;;;;6.45;3.55;;;14.00;99.90;;;;;;5051174;28;20181;-72
2021/10/11 10:10:21;;;;;;;5.60;2.65;;;14.10;99.90;;;;;;5051148;28;20158;-71
2021/10/11 10:12:49;;;;;;;7.03;2.58;;;14.30;99.90;;;;;;5051060;28;20162;-71
2021/10/11 10:15:28;;;;;;;3.13;2.55;;;14.30;99.90;;;;;;5050454;28;20196;-70
2021/10/11 10:18:01;;;;;;;4.90;2.85;;;14.50;99.90;;;;;;5032546;28;20165;-70
2021/10/11 10:20:27;;;;;;;7.03;2.75;;;14.90;99.90;;;;;;5050474;28;20173;-69
2021/10/11 10:22:53;;;;;;;6.45;3.28;;;14.70;99.90;;;;;;5049763;28;20181;-70
2021/10/11 10:25:21;;;;;;;2.80;2.33;;;14.80;99.90;;;;;;5050339;28;20194;-70
2021/10/11 10:27:49;;;;;;;4.95;2.90;;;14.90;99.90;;;;;;5032289;28;20180;-69
2021/10/11 10:30:17;;;;;;;2.92;2.38;;;15.00;99.90;;;;;;5032357;28;20165;-69
2021/10/11 10:32:54;;;;;;;4.78;2.85;;;14.80;99.90;;;;;;5050437;28;20168;-70
2021/10/11 10:35:20;;;;;;;4.15;3.05;;;14.80;99.90;;;;;;5050427;28;20197;-72
2021/10/11 10:37:46;;;;;;;3.65;2.47;;;15.00;99.90;;;;;;5032617;28;20222;-72
2021/10/11 10:40:15;;;;;;;5.15;2.53;;;15.10;99.90;;;;;;5032251;28;20541;-72
2021/10/11 10:42:44;;;;;;;5.20;3.13;;;15.30;99.90;;;;;;5050487;28;20158;-72
2021/10/11 10:45:26;;;;;;;4.38;2.67;;;15.10;99.90;;;;;;5050102;28;20176;-72
2021/10/11 10:47:52;;;;;;;7.65;3.28;;;15.20;99.90;;;;;;5049968;28;20161;-70
2021/10/11 10:50:23;;;;;;;8.15;4.53;;;15.70;99.90;;;;;;5050172;28;20211;-71
2021/10/11 10:52:53;;;;;;;14.75;6.30;;;15.70;99.90;;;;;;5038637;28;20708;-70
2021/10/11 10:55:19;;;;;;;5.60;4.18;;;15.70;99.90;;;;;;5049136;28;20224;-71
2021/10/11 10:57:46;;;;;;;8.38;4.65;;;16.10;99.90;;;;;;5050145;28;20146;-71
2021/10/11 11:00:17;;;;;;;7.05;3.28;;;16.30;99.90;;;;;;5032142;28;20232;-71
2021/10/11 11:02:45;;;;;;;9.20;4.47;;;15.80;99.90;;;;;;5032372;28;20207;-71
2021/10/11 11:05:13;;;;;;;8.00;4.93;;;15.40;99.90;;;;;;5050168;28;20303;-71
2021/10/11 11:07:40;;;;;;;7.40;5.00;;;14.80;99.90;;;;;;5032831;28;20187;-76
2021/10/11 11:10:17;;;;;;;7.65;4.32;;;14.10;99.90;;;;;;5032262;28;20237;-75
2021/10/11 11:12:46;;;;;;;10.73;4.32;;;13.80;99.90;;;;;;5049357;28;20279;-76
2021/10/11 11:15:24;;;;;;;9.27;4.20;;;13.70;99.90;;;;;;5049899;28;20252;-75
2021/10/11 11:17:51;;;;;;;7.75;4.63;;;13.70;99.90;;;;;;5032171;28;20225;-75
2021/10/11 11:20:26;;;;;;;7.70;4.50;;;13.60;99.90;;;;;;5050167;28;20181;-75
2021/10/11 11:22:55;;;;;;;10.68;4.65;;;13.70;99.90;;;;;;5049564;28;20152;-75
2021/10/11 11:25:29;;;;;;;6.93;4.68;;;13.60;99.90;;;;;;5031720;28;20221;-74
2021/10/11 11:27:57;;;;;;;10.77;4.63;;;13.90;99.90;;;;;;5049894;28;20626;-74
2021/10/11 11:30:24;;;;;;;10.23;4.90;;;14.30;99.90;;;;;;5031564;28;20176;-74
2021/10/11 11:32:54;;;;;;;7.38;4.32;;;15.10;99.90;;;;;;5049658;28;20221;-74
2021/10/11 11:35:29;;;;;;;9.55;4.32;;;16.00;99.90;;;;;;5031771;28;20213;-75
2021/10/11 11:38:02;;;;;;;11.38;4.38;;;17.40;99.90;;;;;;5049636;28;20232;-75
2021/10/11 11:40:32;;;;;;;8.77;4.68;;;17.40;99.90;;;;;;5049687;28;20165;-75
2021/10/11 11:42:59;;;;;;;6.30;4.25;;;17.10;99.90;;;;;;5031499;28;20199;-75
2021/10/11 11:45:45;;;;;;;11.15;4.93;;;16.40;99.90;;;;;;5049871;28;20201;-75
2021/10/11 11:48:16;;;;;;;7.75;4.13;;;16.20;99.90;;;;;;5049706;28;20181;-75
2021/10/11 11:50:44;;;;;;;5.28;3.53;;;15.80;99.90;;;;;;5050025;28;20645;-76
2021/10/11 11:53:14;;;;;;;5.97;3.47;;;15.80;99.90;;;;;;5048340;28;20228;-76
2021/10/11 11:55:45;;;;;;;9.57;4.03;;;16.00;99.90;;;;;;5053637;28;20205;-76
2021/10/11 11:58:14;;;;;;;6.40;4.15;;;15.50;99.90;;;;;;5065465;28;20177;-75
2021/10/11 12:00:48;;;;;;;7.30;3.88;;;16.00;99.90;;;;;;5084721;28;20172;-75
2021/10/11 12:03:43;;;;;;;8.65;3.65;;;17.00;99.90;;;;;;5088316;28;20172;-75
2021/10/11 12:06:09;;;;;;;10.85;3.88;;;18.10;99.90;;;;;;5084955;28;20203;-74
2021/10/11 12:08:36;;;;;;;7.40;3.78;;;18.10;99.90;;;;;;5088343;28;20168;-76
2021/10/11 12:11:04;;;;;;;6.68;3.70;;;17.40;99.90;;;;;;5089680;28;20233;-75
2021/10/11 12:13:35;;;;;;;5.97;4.20;;;16.80;99.90;;;;;;5089202;28;20152;-75
2021/10/11 12:16:05;;;;;;;5.32;3.42;;;16.90;99.90;;;;;;5088339;28;20211;-75
2021/10/11 12:18:39;;;;;;;7.47;3.65;;;16.10;99.90;;;;;;5089042;28;20160;-74
2021/10/11 12:21:05;;;;;;;7.75;3.80;;;15.30;99.90;;;;;;5088652;28;20178;-75
2021/10/11 12:23:41;;;;;;;5.55;3.65;;;14.90;99.90;;;;;;5088830;28;20164;-74
2021/10/11 12:26:08;;;;;;;8.15;3.70;;;14.60;99.90;;;;;;5088726;28;20202;-74
2021/10/11 12:28:34;;;;;;;8.23;4.10;;;14.80;99.90;;;;;;5088885;28;20159;-75
2021/10/11 12:31:05;;;;;;;8.13;3.40;;;14.60;99.90;;;;;;5069736;28;20307;-76
2021/10/11 12:33:38;;;;;;;3.75;2.90;;;14.70;99.90;;;;;;5068911;28;20158;-75
2021/10/11 12:36:06;;;;;;;5.25;3.25;;;14.70;99.90;;;;;;5067664;28;20207;-75
2021/10/11 12:38:37;;;;;;;7.78;4.03;;;14.80;99.90;;;;;;5068468;28;20621;-75
2021/10/11 12:41:10;;;;;;;4.80;3.70;;;14.80;99.90;;;;;;5067269;28;20197;-75
2021/10/11 12:43:36;;;;;;;7.70;3.40;;;14.60;99.90;;;;;;5067475;28;20257;-76
2021/10/11 12:46:08;;;;;;;8.07;3.65;;;14.70;99.90;;;;;;5068739;28;20168;-75
2021/10/11 12:48:36;;;;;;;6.38;3.80;;;14.70;99.90;;;;;;5068053;28;20222;-72
2021/10/11 12:51:04;;;;;;;5.45;2.92;;;14.80;99.90;;;;;;5066948;28;20207;-75
2021/10/11 12:53:31;;;;;;;6.18;3.22;;;15.00;99.90;;;;;;5066850;28;20322;-72
2021/10/11 12:55:59;;;;;;;5.95;3.50;;;14.90;99.90;;;;;;5068411;28;20189;-72